sensor_id;sensor_type;location;lat;lon;timestamp;temperature;humidity
86136;DHT22;76795;51.360;4.546;2024-03-08T00:01:07;5.20;88.40
86136;DHT22;76795;51.360;4.546;2024-03-08T00:03:32;5.10;88.30
86136;DHT22;76795;51.360;4.546;2024-03-08T00:05:59;5.20;88.60
86136;DHT22;76795;51.360;4.546;2024-03-08T00:08:24;5.10;88.10
86136;DHT22;76795;51.360;4.546;2024-03-08T00:10:50;5.00;88.30
86136;DHT22;76795;51.360;4.546;2024-03-08T00:13:16;5.10;88.30
86136;DHT22;76795;51.360;4.546;2024-03-08T00:15:42;5.10;88.00
86136;DHT22;76795;51.360;4.546;2024-03-08T00:18:08;5.20;88.10
86136;DHT22;76795;51.360;4.546;2024-03-08T00:20:33;5.10;87.80
86136;DHT22;76795;51.360;4.546;2024-03-08T00:22:59;5.10;87.60
86136;DHT22;76795;51.360;4.546;2024-03-08T00:25:25;5.10;87.60
86136;DHT22;76795;51.360;4.546;2024-03-08T00:27:51;5.10;87.60
86136;DHT22;76795;51.360;4.546;2024-03-08T00:30:16;5.00;87.60
86136;DHT22;76795;51.360;4.546;2024-03-08T00:32:42;5.00;87.40
86136;DHT22;76795;51.360;4.546;2024-03-08T00:35:08;5.00;87.40
86136;DHT22;76795;51.360;4.546;2024-03-08T00:37:34;4.90;87.50
86136;DHT22;76795;51.360;4.546;2024-03-08T00:40:02;4.90;87.50
86136;DHT22;76795;51.360;4.546;2024-03-08T00:42:28;4.90;87.50
86136;DHT22;76795;51.360;4.546;2024-03-08T00:44:57;5.00;87.30
86136;DHT22;76795;51.360;4.546;2024-03-08T00:47:23;4.90;87.00
86136;DHT22;76795;51.360;4.546;2024-03-08T00:49:49;4.90;87.00
86136;DHT22;76795;51.360;4.546;2024-03-08T00:52:15;4.90;86.80
86136;DHT22;76795;51.360;4.546;2024-03-08T00:54:40;4.80;86.80
86136;DHT22;76795;51.360;4.546;2024-03-08T00:57:06;4.80;86.60
86136;DHT22;76795;51.360;4.546;2024-03-08T00:59:32;4.80;86.50
86136;DHT22;76795;51.360;4.546;2024-03-08T01:01:59;4.70;86.50
86136;DHT22;76795;51.360;4.546;2024-03-08T01:04:26;4.70;87.10
86136;DHT22;76795;51.360;4.546;2024-03-08T01:06:54;4.60;86.70
86136;DHT22;76795;51.360;4.546;2024-03-08T01:09:22;4.60;86.90
86136;DHT22;76795;51.360;4.546;2024-03-08T01:11:48;4.60;86.60
86136;DHT22;76795;51.360;4.546;2024-03-08T01:14:15;4.60;86.50
86136;DHT22;76795;51.360;4.546;2024-03-08T01:16:40;4.60;86.60
86136;DHT22;76795;51.360;4.546;2024-03-08T01:19:06;4.60;86.40
86136;DHT22;76795;51.360;4.546;2024-03-08T01:21:32;4.60;86.30
86136;DHT22;76795;51.360;4.546;2024-03-08T01:23:58;4.60;85.90
86136;DHT22;76795;51.360;4.546;2024-03-08T01:26:23;4.60;85.80
86136;DHT22;76795;51.360;4.546;2024-03-08T01:28:50;4.60;85.70
86136;DHT22;76795;51.360;4.546;2024-03-08T01:31:15;4.60;85.50
86136;DHT22;76795;51.360;4.546;2024-03-08T01:33:41;4.60;85.40
86136;DHT22;76795;51.360;4.546;2024-03-08T01:36:07;4.60;85.30
86136;DHT22;76795;51.360;4.546;2024-03-08T01:38:33;4.60;85.10
86136;DHT22;76795;51.360;4.546;2024-03-08T01:40:59;4.60;84.90
86136;DHT22;76795;51.360;4.546;2024-03-08T01:43:26;4.50;84.90
86136;DHT22;76795;51.360;4.546;2024-03-08T01:45:58;4.50;84.90
86136;DHT22;76795;51.360;4.546;2024-03-08T01:48:30;4.50;84.90
86136;DHT22;76795;51.360;4.546;2024-03-08T01:50:57;4.60;84.90
86136;DHT22;76795;51.360;4.546;2024-03-08T01:53:24;4.50;84.30
86136;DHT22;76795;51.360;4.546;2024-03-08T01:55:56;4.50;84.90
86136;DHT22;76795;51.360;4.546;2024-03-08T01:58:22;4.40;84.70
86136;DHT22;76795;51.360;4.546;2024-03-08T02:00:49;4.50;84.80
86136;DHT22;76795;51.360;4.546;2024-03-08T02:03:18;4.50;84.30
86136;DHT22;76795;51.360;4.546;2024-03-08T02:05:44;4.50;84.40
86136;DHT22;76795;51.360;4.546;2024-03-08T02:08:10;4.40;84.70
86136;DHT22;76795;51.360;4.546;2024-03-08T02:10:44;4.40;84.80
86136;DHT22;76795;51.360;4.546;2024-03-08T02:13:10;4.40;84.60
86136;DHT22;76795;51.360;4.546;2024-03-08T02:15:56;4.30;84.30
86136;DHT22;76795;51.360;4.546;2024-03-08T02:18:25;4.30;84.40
86136;DHT22;76795;51.360;4.546;2024-03-08T02:21:01;4.30;83.80
86136;DHT22;76795;51.360;4.546;2024-03-08T02:23:32;4.30;83.70
86136;DHT22;76795;51.360;4.546;2024-03-08T02:25:57;4.20;84.40
86136;DHT22;76795;51.360;4.546;2024-03-08T02:28:24;4.30;84.30
86136;DHT22;76795;51.360;4.546;2024-03-08T02:30:56;4.30;83.30
86136;DHT22;76795;51.360;4.546;2024-03-08T02:33:26;4.30;83.20
86136;DHT22;76795;51.360;4.546;2024-03-08T02:35:52;4.30;83.40
86136;DHT22;76795;51.360;4.546;2024-03-08T02:38:19;4.30;83.20
86136;DHT22;76795;51.360;4.546;2024-03-08T02:40:46;4.30;83.40
86136;DHT22;76795;51.360;4.546;2024-03-08T02:43:14;4.30;83.10
86136;DHT22;76795;51.360;4.546;2024-03-08T02:45:40;4.30;83.30
86136;DHT22;76795;51.360;4.546;2024-03-08T02:48:07;4.20;83.30
86136;DHT22;76795;51.360;4.546;2024-03-08T02:50:34;4.20;83.30
86136;DHT22;76795;51.360;4.546;2024-03-08T02:53:03;4.10;83.60
86136;DHT22;76795;51.360;4.546;2024-03-08T02:55:29;4.00;83.70
86136;DHT22;76795;51.360;4.546;2024-03-08T02:57:56;4.10;83.70
86136;DHT22;76795;51.360;4.546;2024-03-08T03:00:22;4.00;83.30
86136;DHT22;76795;51.360;4.546;2024-03-08T03:02:51;3.90;83.80
86136;DHT22;76795;51.360;4.546;2024-03-08T03:05:23;3.90;84.10
86136;DHT22;76795;51.360;4.546;2024-03-08T03:07:49;3.80;83.60
86136;DHT22;76795;51.360;4.546;2024-03-08T03:10:17;3.90;83.70
86136;DHT22;76795;51.360;4.546;2024-03-08T03:12:43;3.90;83.70
86136;DHT22;76795;51.360;4.546;2024-03-08T03:15:10;3.80;83.70
86136;DHT22;76795;51.360;4.546;2024-03-08T03:17:37;3.80;84.00
86136;DHT22;76795;51.360;4.546;2024-03-08T03:20:05;3.80;83.60
86136;DHT22;76795;51.360;4.546;2024-03-08T03:22:36;3.80;83.70
86136;DHT22;76795;51.360;4.546;2024-03-08T03:25:03;3.80;83.40
86136;DHT22;76795;51.360;4.546;2024-03-08T03:27:32;3.90;83.00
86136;DHT22;76795;51.360;4.546;2024-03-08T03:29:58;3.90;82.80
86136;DHT22;76795;51.360;4.546;2024-03-08T03:32:24;3.90;83.00
86136;DHT22;76795;51.360;4.546;2024-03-08T03:34:49;3.80;83.00
86136;DHT22;76795;51.360;4.546;2024-03-08T03:37:21;3.80;83.00
86136;DHT22;76795;51.360;4.546;2024-03-08T03:39:47;3.80;83.10
86136;DHT22;76795;51.360;4.546;2024-03-08T03:42:17;3.80;83.10
86136;DHT22;76795;51.360;4.546;2024-03-08T03:44:47;3.80;82.90
86136;DHT22;76795;51.360;4.546;2024-03-08T03:47:13;3.80;83.00
86136;DHT22;76795;51.360;4.546;2024-03-08T03:49:43;3.80;82.70
86136;DHT22;76795;51.360;4.546;2024-03-08T03:52:09;3.80;82.30
86136;DHT22;76795;51.360;4.546;2024-03-08T03:54:35;3.80;82.50
86136;DHT22;76795;51.360;4.546;2024-03-08T03:57:01;3.80;82.50
86136;DHT22;76795;51.360;4.546;2024-03-08T03:59:28;3.70;82.90
86136;DHT22;76795;51.360;4.546;2024-03-08T04:01:54;3.70;83.00
86136;DHT22;76795;51.360;4.546;2024-03-08T04:04:20;3.60;83.20
86136;DHT22;76795;51.360;4.546;2024-03-08T04:06:46;3.60;83.10
86136;DHT22;76795;51.360;4.546;2024-03-08T04:09:12;3.60;83.10
86136;DHT22;76795;51.360;4.546;2024-03-08T04:11:38;3.50;84.30
86136;DHT22;76795;51.360;4.546;2024-03-08T04:14:04;3.50;83.60
86136;DHT22;76795;51.360;4.546;2024-03-08T04:16:31;3.40;83.70
86136;DHT22;76795;51.360;4.546;2024-03-08T04:18:57;3.50;83.60
86136;DHT22;76795;51.360;4.546;2024-03-08T04:21:23;3.50;83.30
86136;DHT22;76795;51.360;4.546;2024-03-08T04:23:49;3.50;83.00
86136;DHT22;76795;51.360;4.546;2024-03-08T04:26:15;3.50;83.10
86136;DHT22;76795;51.360;4.546;2024-03-08T04:28:40;3.40;83.40
86136;DHT22;76795;51.360;4.546;2024-03-08T04:31:07;3.30;83.30
86136;DHT22;76795;51.360;4.546;2024-03-08T04:33:33;3.30;83.30
86136;DHT22;76795;51.360;4.546;2024-03-08T04:36:01;3.30;83.40
86136;DHT22;76795;51.360;4.546;2024-03-08T04:38:29;3.40;83.20
86136;DHT22;76795;51.360;4.546;2024-03-08T04:40:59;3.40;83.10
86136;DHT22;76795;51.360;4.546;2024-03-08T04:43:25;3.40;82.60
86136;DHT22;76795;51.360;4.546;2024-03-08T04:45:52;3.30;82.80
86136;DHT22;76795;51.360;4.546;2024-03-08T04:48:19;3.40;82.70
86136;DHT22;76795;51.360;4.546;2024-03-08T04:50:46;3.40;82.90
86136;DHT22;76795;51.360;4.546;2024-03-08T04:53:11;3.40;82.90
86136;DHT22;76795;51.360;4.546;2024-03-08T04:55:37;3.40;82.60
86136;DHT22;76795;51.360;4.546;2024-03-08T04:58:03;3.40;82.50
86136;DHT22;76795;51.360;4.546;2024-03-08T05:00:32;3.40;82.40
86136;DHT22;76795;51.360;4.546;2024-03-08T05:02:58;3.30;82.60
86136;DHT22;76795;51.360;4.546;2024-03-08T05:05:24;3.30;82.80
86136;DHT22;76795;51.360;4.546;2024-03-08T05:07:50;3.30;82.30
86136;DHT22;76795;51.360;4.546;2024-03-08T05:10:16;3.30;82.70
86136;DHT22;76795;51.360;4.546;2024-03-08T05:12:43;3.30;82.60
86136;DHT22;76795;51.360;4.546;2024-03-08T05:15:09;3.30;82.40
86136;DHT22;76795;51.360;4.546;2024-03-08T05:17:35;3.30;82.40
86136;DHT22;76795;51.360;4.546;2024-03-08T05:20:01;3.40;82.10
86136;DHT22;76795;51.360;4.546;2024-03-08T05:22:27;3.40;81.80
86136;DHT22;76795;51.360;4.546;2024-03-08T05:24:53;3.40;81.90
86136;DHT22;76795;51.360;4.546;2024-03-08T05:27:19;3.40;81.70
86136;DHT22;76795;51.360;4.546;2024-03-08T05:29:44;3.30;81.80
86136;DHT22;76795;51.360;4.546;2024-03-08T05:32:11;3.30;82.00
86136;DHT22;76795;51.360;4.546;2024-03-08T05:34:37;3.30;82.10
86136;DHT22;76795;51.360;4.546;2024-03-08T05:37:04;3.20;82.30
86136;DHT22;76795;51.360;4.546;2024-03-08T05:39:29;3.30;82.00
86136;DHT22;76795;51.360;4.546;2024-03-08T05:41:55;3.20;82.20
86136;DHT22;76795;51.360;4.546;2024-03-08T05:44:21;3.10;82.70
86136;DHT22;76795;51.360;4.546;2024-03-08T05:46:47;3.10;83.00
86136;DHT22;76795;51.360;4.546;2024-03-08T05:49:13;3.00;83.10
86136;DHT22;76795;51.360;4.546;2024-03-08T05:51:40;3.00;82.70
86136;DHT22;76795;51.360;4.546;2024-03-08T05:54:13;3.00;82.90
86136;DHT22;76795;51.360;4.546;2024-03-08T05:56:39;3.00;83.00
86136;DHT22;76795;51.360;4.546;2024-03-08T05:59:09;3.00;83.10
86136;DHT22;76795;51.360;4.546;2024-03-08T06:01:35;3.00;83.20
86136;DHT22;76795;51.360;4.546;2024-03-08T06:04:03;3.00;83.10
86136;DHT22;76795;51.360;4.546;2024-03-08T06:06:29;3.10;82.60
86136;DHT22;76795;51.360;4.546;2024-03-08T06:08:55;3.10;82.50
86136;DHT22;76795;51.360;4.546;2024-03-08T06:11:25;3.00;82.60
86136;DHT22;76795;51.360;4.546;2024-03-08T06:13:55;3.00;83.00
86136;DHT22;76795;51.360;4.546;2024-03-08T06:16:26;3.00;82.60
86136;DHT22;76795;51.360;4.546;2024-03-08T06:18:58;3.00;82.60
86136;DHT22;76795;51.360;4.546;2024-03-08T06:21:24;2.90;82.90
86136;DHT22;76795;51.360;4.546;2024-03-08T06:23:54;2.90;82.90
86136;DHT22;76795;51.360;4.546;2024-03-08T06:26:24;3.00;82.90
86136;DHT22;76795;51.360;4.546;2024-03-08T06:28:50;3.00;82.60
86136;DHT22;76795;51.360;4.546;2024-03-08T06:31:16;3.00;82.90
86136;DHT22;76795;51.360;4.546;2024-03-08T06:33:42;3.00;82.60
86136;DHT22;76795;51.360;4.546;2024-03-08T06:36:09;3.00;82.50
86136;DHT22;76795;51.360;4.546;2024-03-08T06:38:35;3.00;82.50
86136;DHT22;76795;51.360;4.546;2024-03-08T06:41:00;3.00;82.50
86136;DHT22;76795;51.360;4.546;2024-03-08T06:43:28;3.10;82.60
86136;DHT22;76795;51.360;4.546;2024-03-08T06:45:59;3.10;82.30
86136;DHT22;76795;51.360;4.546;2024-03-08T06:48:25;3.10;82.10
86136;DHT22;76795;51.360;4.546;2024-03-08T06:50:51;3.10;82.50
86136;DHT22;76795;51.360;4.546;2024-03-08T06:53:16;3.10;82.20
86136;DHT22;76795;51.360;4.546;2024-03-08T06:55:45;3.20;82.30
86136;DHT22;76795;51.360;4.546;2024-03-08T06:58:11;3.20;81.80
86136;DHT22;76795;51.360;4.546;2024-03-08T07:00:37;3.30;81.70
86136;DHT22;76795;51.360;4.546;2024-03-08T07:03:03;3.30;81.50
86136;DHT22;76795;51.360;4.546;2024-03-08T07:05:32;3.30;81.90
86136;DHT22;76795;51.360;4.546;2024-03-08T07:07:58;3.40;81.40
86136;DHT22;76795;51.360;4.546;2024-03-08T07:10:24;3.40;81.50
86136;DHT22;76795;51.360;4.546;2024-03-08T07:12:52;3.40;81.40
86136;DHT22;76795;51.360;4.546;2024-03-08T07:15:21;3.40;81.30
86136;DHT22;76795;51.360;4.546;2024-03-08T07:17:49;3.40;81.20
86136;DHT22;76795;51.360;4.546;2024-03-08T07:20:17;3.50;81.40
86136;DHT22;76795;51.360;4.546;2024-03-08T07:22:45;3.60;80.80
86136;DHT22;76795;51.360;4.546;2024-03-08T07:25:13;3.60;80.80
86136;DHT22;76795;51.360;4.546;2024-03-08T07:27:51;3.60;80.60
86136;DHT22;76795;51.360;4.546;2024-03-08T07:30:21;3.70;80.60
86136;DHT22;76795;51.360;4.546;2024-03-08T07:33:06;3.70;80.00
86136;DHT22;76795;51.360;4.546;2024-03-08T07:35:33;3.80;80.20
86136;DHT22;76795;51.360;4.546;2024-03-08T07:38:05;3.80;80.50
86136;DHT22;76795;51.360;4.546;2024-03-08T07:40:35;3.80;80.50
86136;DHT22;76795;51.360;4.546;2024-03-08T07:43:00;3.90;80.20
86136;DHT22;76795;51.360;4.546;2024-03-08T07:45:26;4.00;80.10
86136;DHT22;76795;51.360;4.546;2024-03-08T07:47:52;4.10;79.30
86136;DHT22;76795;51.360;4.546;2024-03-08T07:50:18;4.20;79.60
86136;DHT22;76795;51.360;4.546;2024-03-08T07:52:45;4.20;79.50
86136;DHT22;76795;51.360;4.546;2024-03-08T07:55:10;4.20;79.70
86136;DHT22;76795;51.360;4.546;2024-03-08T07:57:36;4.30;80.30
86136;DHT22;76795;51.360;4.546;2024-03-08T08:00:05;4.60;85.60
86136;DHT22;76795;51.360;4.546;2024-03-08T08:02:33;4.80;78.30
86136;DHT22;76795;51.360;4.546;2024-03-08T08:05:00;4.80;77.30
86136;DHT22;76795;51.360;4.546;2024-03-08T08:07:26;4.80;77.80
86136;DHT22;76795;51.360;4.546;2024-03-08T08:09:53;4.80;77.80
86136;DHT22;76795;51.360;4.546;2024-03-08T08:12:19;4.90;77.70
86136;DHT22;76795;51.360;4.546;2024-03-08T08:14:45;5.00;77.00
86136;DHT22;76795;51.360;4.546;2024-03-08T08:17:12;5.00;76.40
86136;DHT22;76795;51.360;4.546;2024-03-08T08:19:38;5.00;76.60
86136;DHT22;76795;51.360;4.546;2024-03-08T08:22:06;5.00;77.00
86136;DHT22;76795;51.360;4.546;2024-03-08T08:24:34;5.20;76.60
86136;DHT22;76795;51.360;4.546;2024-03-08T08:27:02;5.20;75.80
86136;DHT22;76795;51.360;4.546;2024-03-08T08:29:28;5.20;76.00
86136;DHT22;76795;51.360;4.546;2024-03-08T08:31:54;5.30;76.20
86136;DHT22;76795;51.360;4.546;2024-03-08T08:34:19;5.40;75.90
86136;DHT22;76795;51.360;4.546;2024-03-08T08:36:50;5.40;75.30
86136;DHT22;76795;51.360;4.546;2024-03-08T08:39:19;5.40;75.60
86136;DHT22;76795;51.360;4.546;2024-03-08T08:41:44;5.50;75.40
86136;DHT22;76795;51.360;4.546;2024-03-08T08:44:10;5.50;75.30
86136;DHT22;76795;51.360;4.546;2024-03-08T08:46:38;5.60;76.20
86136;DHT22;76795;51.360;4.546;2024-03-08T08:49:04;5.70;74.70
86136;DHT22;76795;51.360;4.546;2024-03-08T08:51:31;5.80;74.30
86136;DHT22;76795;51.360;4.546;2024-03-08T08:53:59;5.80;74.30
86136;DHT22;76795;51.360;4.546;2024-03-08T08:56:25;5.90;74.50
86136;DHT22;76795;51.360;4.546;2024-03-08T08:58:52;6.00;74.50
86136;DHT22;76795;51.360;4.546;2024-03-08T09:01:19;6.10;73.70
86136;DHT22;76795;51.360;4.546;2024-03-08T09:03:45;6.20;72.60
86136;DHT22;76795;51.360;4.546;2024-03-08T09:06:12;6.30;72.70
86136;DHT22;76795;51.360;4.546;2024-03-08T09:08:39;6.20;72.30
86136;DHT22;76795;51.360;4.546;2024-03-08T09:11:05;6.20;71.30
86136;DHT22;76795;51.360;4.546;2024-03-08T09:13:31;6.40;72.40
86136;DHT22;76795;51.360;4.546;2024-03-08T09:15:57;6.30;72.20
86136;DHT22;76795;51.360;4.546;2024-03-08T09:18:22;6.40;71.80
86136;DHT22;76795;51.360;4.546;2024-03-08T09:20:49;6.40;72.40
86136;DHT22;76795;51.360;4.546;2024-03-08T09:23:19;6.50;72.80
86136;DHT22;76795;51.360;4.546;2024-03-08T09:25:45;6.50;72.30
86136;DHT22;76795;51.360;4.546;2024-03-08T09:28:12;6.60;70.50
86136;DHT22;76795;51.360;4.546;2024-03-08T09:30:38;6.70;71.50
86136;DHT22;76795;51.360;4.546;2024-03-08T09:33:05;6.70;71.50
86136;DHT22;76795;51.360;4.546;2024-03-08T09:35:32;6.80;70.70
86136;DHT22;76795;51.360;4.546;2024-03-08T09:37:57;6.80;69.80
86136;DHT22;76795;51.360;4.546;2024-03-08T09:40:27;6.90;71.00
86136;DHT22;76795;51.360;4.546;2024-03-08T09:42:55;6.80;70.10
86136;DHT22;76795;51.360;4.546;2024-03-08T09:45:23;6.80;70.30
86136;DHT22;76795;51.360;4.546;2024-03-08T09:47:50;6.80;70.20
86136;DHT22;76795;51.360;4.546;2024-03-08T09:50:16;6.90;69.90
86136;DHT22;76795;51.360;4.546;2024-03-08T09:52:43;6.90;69.90
86136;DHT22;76795;51.360;4.546;2024-03-08T09:55:12;7.10;70.00
86136;DHT22;76795;51.360;4.546;2024-03-08T09:57:38;7.20;69.90
86136;DHT22;76795;51.360;4.546;2024-03-08T10:00:05;7.30;68.90
86136;DHT22;76795;51.360;4.546;2024-03-08T10:02:46;7.30;68.80
86136;DHT22;76795;51.360;4.546;2024-03-08T10:05:13;7.40;67.50
86136;DHT22;76795;51.360;4.546;2024-03-08T10:07:39;7.50;68.90
86136;DHT22;76795;51.360;4.546;2024-03-08T10:10:06;7.50;67.90
86136;DHT22;76795;51.360;4.546;2024-03-08T10:12:34;7.60;67.40
86136;DHT22;76795;51.360;4.546;2024-03-08T10:15:00;7.70;68.20
86136;DHT22;76795;51.360;4.546;2024-03-08T10:17:26;7.90;67.50
86136;DHT22;76795;51.360;4.546;2024-03-08T10:19:53;8.00;67.70
86136;DHT22;76795;51.360;4.546;2024-03-08T10:22:19;8.00;66.30
86136;DHT22;76795;51.360;4.546;2024-03-08T10:24:48;8.10;65.90
86136;DHT22;76795;51.360;4.546;2024-03-08T10:27:16;8.00;65.10
86136;DHT22;76795;51.360;4.546;2024-03-08T10:29:42;8.10;64.90
86136;DHT22;76795;51.360;4.546;2024-03-08T10:32:10;8.20;64.90
86136;DHT22;76795;51.360;4.546;2024-03-08T10:34:36;8.30;65.00
86136;DHT22;76795;51.360;4.546;2024-03-08T10:37:05;8.40;65.40
86136;DHT22;76795;51.360;4.546;2024-03-08T10:39:36;8.60;65.10
86136;DHT22;76795;51.360;4.546;2024-03-08T10:42:04;8.60;64.30
86136;DHT22;76795;51.360;4.546;2024-03-08T10:47:16;8.70;63.60
86136;DHT22;76795;51.360;4.546;2024-03-08T10:52:35;8.80;62.70
86136;DHT22;76795;51.360;4.546;2024-03-08T10:55:02;8.70;62.90
86136;DHT22;76795;51.360;4.546;2024-03-08T10:57:29;8.70;63.40
86136;DHT22;76795;51.360;4.546;2024-03-08T10:59:55;8.80;63.10
86136;DHT22;76795;51.360;4.546;2024-03-08T11:02:21;8.90;62.60
86136;DHT22;76795;51.360;4.546;2024-03-08T11:04:48;9.00;62.50
86136;DHT22;76795;51.360;4.546;2024-03-08T11:07:15;9.10;62.90
86136;DHT22;76795;51.360;4.546;2024-03-08T11:09:44;9.10;62.90
86136;DHT22;76795;51.360;4.546;2024-03-08T11:14:49;9.20;62.30
86136;DHT22;76795;51.360;4.546;2024-03-08T11:19:56;9.50;61.50
86136;DHT22;76795;51.360;4.546;2024-03-08T11:25:35;9.60;60.80
86136;DHT22;76795;51.360;4.546;2024-03-08T11:30:33;9.70;59.90
86136;DHT22;76795;51.360;4.546;2024-03-08T11:33:01;9.80;60.10
86136;DHT22;76795;51.360;4.546;2024-03-08T11:35:28;9.70;59.60
86136;DHT22;76795;51.360;4.546;2024-03-08T11:37:57;9.80;59.20
86136;DHT22;76795;51.360;4.546;2024-03-08T11:40:24;9.80;60.10
86136;DHT22;76795;51.360;4.546;2024-03-08T11:42:49;9.90;60.10
86136;DHT22;76795;51.360;4.546;2024-03-08T11:45:17;9.80;59.60
86136;DHT22;76795;51.360;4.546;2024-03-08T11:47:43;9.90;60.00
86136;DHT22;76795;51.360;4.546;2024-03-08T11:50:12;9.90;60.30
86136;DHT22;76795;51.360;4.546;2024-03-08T11:52:38;10.00;59.30
86136;DHT22;76795;51.360;4.546;2024-03-08T11:55:04;10.00;65.30
86136;DHT22;76795;51.360;4.546;2024-03-08T11:57:31;10.00;58.90
86136;DHT22;76795;51.360;4.546;2024-03-08T11:59:58;10.00;58.80
86136;DHT22;76795;51.360;4.546;2024-03-08T12:02:32;9.90;58.70
86136;DHT22;76795;51.360;4.546;2024-03-08T12:05:01;9.90;59.10
86136;DHT22;76795;51.360;4.546;2024-03-08T12:07:29;10.00;59.60
86136;DHT22;76795;51.360;4.546;2024-03-08T12:10:20;10.00;59.10
86136;DHT22;76795;51.360;4.546;2024-03-08T12:12:52;10.10;59.80
86136;DHT22;76795;51.360;4.546;2024-03-08T12:15:19;10.10;58.90
86136;DHT22;76795;51.360;4.546;2024-03-08T12:17:48;10.10;59.50
86136;DHT22;76795;51.360;4.546;2024-03-08T12:20:25;10.20;58.80
86136;DHT22;76795;51.360;4.546;2024-03-08T12:22:52;10.20;58.70
86136;DHT22;76795;51.360;4.546;2024-03-08T12:25:18;10.10;59.00
86136;DHT22;76795;51.360;4.546;2024-03-08T12:27:46;10.10;59.50
86136;DHT22;76795;51.360;4.546;2024-03-08T12:32:56;10.20;59.40
86136;DHT22;76795;51.360;4.546;2024-03-08T12:35:28;10.40;58.40
86136;DHT22;76795;51.360;4.546;2024-03-08T12:37:58;10.40;58.10
86136;DHT22;76795;51.360;4.546;2024-03-08T12:40:32;10.50;59.20
86136;DHT22;76795;51.360;4.546;2024-03-08T12:43:00;10.60;58.60
86136;DHT22;76795;51.360;4.546;2024-03-08T12:45:26;10.60;58.70
86136;DHT22;76795;51.360;4.546;2024-03-08T12:47:53;10.50;58.20
86136;DHT22;76795;51.360;4.546;2024-03-08T12:50:19;10.50;59.40
86136;DHT22;76795;51.360;4.546;2024-03-08T12:52:46;10.60;58.70
86136;DHT22;76795;51.360;4.546;2024-03-08T12:55:12;10.60;59.50
86136;DHT22;76795;51.360;4.546;2024-03-08T12:57:38;10.70;59.00
86136;DHT22;76795;51.360;4.546;2024-03-08T13:02:39;10.90;58.10
86136;DHT22;76795;51.360;4.546;2024-03-08T13:05:05;10.90;57.40
86136;DHT22;76795;51.360;4.546;2024-03-08T13:07:31;10.90;57.90
86136;DHT22;76795;51.360;4.546;2024-03-08T13:09:57;10.90;57.50
86136;DHT22;76795;51.360;4.546;2024-03-08T13:12:25;10.90;57.60
86136;DHT22;76795;51.360;4.546;2024-03-08T13:14:51;10.90;57.80
86136;DHT22;76795;51.360;4.546;2024-03-08T13:17:17;11.10;57.80
86136;DHT22;76795;51.360;4.546;2024-03-08T13:19:44;11.20;57.90
86136;DHT22;76795;51.360;4.546;2024-03-08T13:22:10;11.30;57.00
86136;DHT22;76795;51.360;4.546;2024-03-08T13:24:42;11.40;57.10
86136;DHT22;76795;51.360;4.546;2024-03-08T13:27:11;11.30;56.90
86136;DHT22;76795;51.360;4.546;2024-03-08T13:29:50;11.30;57.30
86136;DHT22;76795;51.360;4.546;2024-03-08T13:32:16;11.40;57.50
86136;DHT22;76795;51.360;4.546;2024-03-08T13:34:45;11.50;57.10
86136;DHT22;76795;51.360;4.546;2024-03-08T13:37:12;11.60;56.70
86136;DHT22;76795;51.360;4.546;2024-03-08T13:39:41;11.60;55.60
86136;DHT22;76795;51.360;4.546;2024-03-08T13:42:12;11.40;56.10
86136;DHT22;76795;51.360;4.546;2024-03-08T13:44:47;11.60;57.10
86136;DHT22;76795;51.360;4.546;2024-03-08T13:47:16;11.60;56.40
86136;DHT22;76795;51.360;4.546;2024-03-08T13:49:43;11.60;56.00
86136;DHT22;76795;51.360;4.546;2024-03-08T13:52:09;11.60;56.40
86136;DHT22;76795;51.360;4.546;2024-03-08T13:54:36;11.60;56.60
86136;DHT22;76795;51.360;4.546;2024-03-08T13:57:02;11.60;56.50
86136;DHT22;76795;51.360;4.546;2024-03-08T13:59:32;11.70;56.30
86136;DHT22;76795;51.360;4.546;2024-03-08T14:01:59;11.80;56.30
86136;DHT22;76795;51.360;4.546;2024-03-08T14:04:26;12.00;56.00
86136;DHT22;76795;51.360;4.546;2024-03-08T14:06:53;12.10;55.00
86136;DHT22;76795;51.360;4.546;2024-03-08T14:09:23;12.10;55.20
86136;DHT22;76795;51.360;4.546;2024-03-08T14:11:51;12.30;55.00
86136;DHT22;76795;51.360;4.546;2024-03-08T14:14:23;12.30;55.60
86136;DHT22;76795;51.360;4.546;2024-03-08T14:16:49;12.50;55.20
86136;DHT22;76795;51.360;4.546;2024-03-08T14:19:20;12.40;54.10
86136;DHT22;76795;51.360;4.546;2024-03-08T14:21:46;12.30;54.40
86136;DHT22;76795;51.360;4.546;2024-03-08T14:24:14;12.40;54.90
86136;DHT22;76795;51.360;4.546;2024-03-08T14:26:41;12.50;54.20
86136;DHT22;76795;51.360;4.546;2024-03-08T14:29:07;12.70;55.30
86136;DHT22;76795;51.360;4.546;2024-03-08T14:31:36;13.00;53.30
86136;DHT22;76795;51.360;4.546;2024-03-08T14:34:02;13.50;51.90
86136;DHT22;76795;51.360;4.546;2024-03-08T14:36:29;14.80;49.20
86136;DHT22;76795;51.360;4.546;2024-03-08T14:38:55;16.70;44.70
86136;DHT22;76795;51.360;4.546;2024-03-08T14:41:21;18.10;43.10
86136;DHT22;76795;51.360;4.546;2024-03-08T14:43:48;19.60;40.50
86136;DHT22;76795;51.360;4.546;2024-03-08T14:46:14;20.00;38.60
86136;DHT22;76795;51.360;4.546;2024-03-08T14:48:46;19.50;39.20
86136;DHT22;76795;51.360;4.546;2024-03-08T14:51:13;19.60;39.30
86136;DHT22;76795;51.360;4.546;2024-03-08T14:53:42;20.30;38.20
86136;DHT22;76795;51.360;4.546;2024-03-08T14:56:13;20.70;37.20
86136;DHT22;76795;51.360;4.546;2024-03-08T14:58:43;20.50;37.10
86136;DHT22;76795;51.360;4.546;2024-03-08T15:01:10;20.00;38.60
86136;DHT22;76795;51.360;4.546;2024-03-08T15:03:36;20.50;38.30
86136;DHT22;76795;51.360;4.546;2024-03-08T15:06:05;20.80;37.90
86136;DHT22;76795;51.360;4.546;2024-03-08T15:08:38;20.40;37.20
86136;DHT22;76795;51.360;4.546;2024-03-08T15:11:07;20.10;38.40
86136;DHT22;76795;51.360;4.546;2024-03-08T15:13:34;19.80;38.10
86136;DHT22;76795;51.360;4.546;2024-03-08T15:16:09;19.40;39.50
86136;DHT22;76795;51.360;4.546;2024-03-08T15:18:40;19.30;39.10
86136;DHT22;76795;51.360;4.546;2024-03-08T15:21:06;18.90;39.70
86136;DHT22;76795;51.360;4.546;2024-03-08T15:23:35;18.60;40.70
86136;DHT22;76795;51.360;4.546;2024-03-08T15:26:02;18.10;42.00
86136;DHT22;76795;51.360;4.546;2024-03-08T15:28:29;18.40;42.30
86136;DHT22;76795;51.360;4.546;2024-03-08T15:31:06;18.50;41.90
86136;DHT22;76795;51.360;4.546;2024-03-08T15:33:33;18.70;40.40
86136;DHT22;76795;51.360;4.546;2024-03-08T15:35:59;18.70;40.40
86136;DHT22;76795;51.360;4.546;2024-03-08T15:38:30;18.60;40.10
86136;DHT22;76795;51.360;4.546;2024-03-08T15:40:57;18.60;40.30
86136;DHT22;76795;51.360;4.546;2024-03-08T15:43:22;18.70;39.60
86136;DHT22;76795;51.360;4.546;2024-03-08T15:45:50;18.60;40.10
86136;DHT22;76795;51.360;4.546;2024-03-08T15:48:16;18.40;40.20
86136;DHT22;76795;51.360;4.546;2024-03-08T15:50:42;18.10;41.50
86136;DHT22;76795;51.360;4.546;2024-03-08T15:53:08;17.70;41.10
86136;DHT22;76795;51.360;4.546;2024-03-08T15:55:34;17.80;41.90
86136;DHT22;76795;51.360;4.546;2024-03-08T15:58:01;18.00;44.40
86136;DHT22;76795;51.360;4.546;2024-03-08T16:00:27;18.50;42.00
86136;DHT22;76795;51.360;4.546;2024-03-08T16:03:06;19.10;40.60
86136;DHT22;76795;51.360;4.546;2024-03-08T16:05:33;19.80;38.90